ADDS METAR Data INFO
IDs: Format: Raw Decoded Include TAF

Data at: 0751 UTC 17 Oct 2017

KMSO 170653Z AUTO 00000KT 10SM CLR 02/M02 A3015 RMK AO2 SNB0557E06 SLP221 P0000 T00221017 401831039
KMSO 170553Z AUTO 00000KT 10SM CLR 04/M02 A3015 RMK AO2 SLP224 T00391017 10161 20028 50000
KMSO 170453Z AUTO 06003KT 10SM CLR 05/M01 A3015 RMK AO2 SLP227 T00501011
KMSO 170353Z 33006KT 10SM CLR 07/M02 A3015 RMK AO2 SLP226 T00721017
KMSO 170253Z 09004KT 10SM CLR 08/M01 A3015 RMK AO2 SLP230 T00781011 53002
KMSO 170153Z 00000KT 10SM CLR 09/M02 A3015 RMK AO2 SLP227 T00941017
KMSO 170053Z 34003KT 10SM CLR 13/M02 A3015 RMK AO2 SLP221 T01331017
KMSO 170049Z 00000KT 10SM CLR 13/M02 A3014 RMK AO2
KMSO 170033Z 27003KT 1SM HZ CLR 14/M01 A3015 RMK AO2 T01441011
KMSO 170029Z 28003KT 1 3/4SM HZ CLR 15/M01 A3015 RMK AO2 T01501011
KMSO 162353Z 6SM HZ CLR 16/M01 A3015 RMK AO2 SLP221 T01611011 10183 20072 56014
KMSO 162253Z COR 33005KT 10SM CLR 18/M04 A3016 RMK AO2 SLP220 T01831039
KMSO 162153Z 29003KT 9SM CLR 17/M02 A3017 RMK AO2 SLP226 T01721017
KMSO 162053Z 00000KT 10SM CLR 16/M03 A3020 RMK AO2 SLP234 T01611028 58028
KMSO 161953Z VRB03KT 10SM CLR 13/00 A3023 RMK AO2 SLP249 T01330000
KMSO 161853Z 00000KT 10SM CLR 11/02 A3027 RMK AO2 SLP260 T01110017
KMSO 161753Z 00000KT 10SM CLR 08/02 A3029 RMK AO2 SLP272 I6000 T00780017 10078 21039 58010
KMSO 161653Z 00000KT 10SM CLR 05/02 A3031 RMK AO2 SLP283 T00500017
KMSO 161553Z 00000KT 10SM CLR 02/01 A3033 RMK AO2 SLP290 T00220006
KMSO 161453Z 00000KT 10SM CLR M01/M02 A3032 RMK AO2 SLP290 I3000 T10111022 53009
KMSO 161353Z 10SM CLR M02/M03 A3030 RMK AO2 SLP283 I1000 T10221033
KMSO 161253Z 04003KT 10SM CLR M02/M02 A3029 RMK AO2 SLP275 T10171022
KMSO 161153Z AUTO 04003KT 10SM CLR M02/M03 A3029 RMK AO2 SLP271 T10171033 10039 21022 50004
KMSO 161053Z AUTO 00000KT 10SM CLR M01/M03 A3029 RMK AO2 SLP270 T10111028
KMSO 160953Z AUTO 35004KT 10SM CLR M01/M02 A3028 RMK AO2 SLP265 T10111022
KMSO 160853Z AUTO 00000KT 10SM CLR 01/M02 A3028 RMK AO2 SLP265 T00061017 53007
KMSO 160753Z AUTO 33003KT 10SM CLR 00/M02 A3026 RMK AO2 SLP261 T00001017
KMSO 160653Z AUTO 03003KT 10SM CLR 03/00 A3025 RMK AO2 SLP256 T00330000 401610011
KMSO 160553Z AUTO 00000KT 10SM CLR 03/01 A3025 RMK AO2 SLP259 T00280006 10150 20028 51003
KMSO 160453Z AUTO 00000KT 10SM CLR 04/00 A3025 RMK AO2 SLP260 T00390000
KMSO 160353Z 00000KT 6SM HZ CLR 05/01 A3025 RMK AO2 SLP260 T00500006
KMSO 160253Z 34004KT 10SM CLR 07/01 A3024 RMK AO2 SLP258 T00670011 56005
KMSO 160153Z 02003KT 10SM CLR 07/01 A3025 RMK AO2 SLP259 T00720011
KMSO 160053Z 00000KT 10SM CLR 12/01 A3025 RMK AO2 SLP255 T01170006
KMSO 152353Z 00000KT 10SM CLR 15/M01 A3026 RMK AO2 SLP255 T01501006 10161 20089 56023
KMSO 152253Z VRB04KT 10SM CLR 16/M01 A3028 RMK AO2 SLP260 T01561011
KMSO 152153Z 28004KT 10SM CLR 15/M02 A3031 RMK AO2 SLP270 T01501017
KMSO 152053Z VRB04KT 10SM CLR 14/M02 A3034 RMK AO2 SLP281 T01391017 56030
KMSO 151953Z VRB03KT 10SM CLR 12/M02 A3037 RMK AO2 SLP293 T01221022